sensor_id;sensor_type;location;lat;lon;timestamp;temperature;humidity
14378;DHT22;7272;53.668;9.578;2022-09-03T00:01:49;16.90;99.90
14378;DHT22;7272;53.668;9.578;2022-09-03T00:04:59;16.80;99.90
14378;DHT22;7272;53.668;9.578;2022-09-03T00:08:10;16.90;99.90
14378;DHT22;7272;53.668;9.578;2022-09-03T00:11:18;16.90;99.90
14378;DHT22;7272;53.668;9.578;2022-09-03T00:14:24;16.80;99.90
14378;DHT22;7272;53.668;9.578;2022-09-03T00:17:31;16.70;99.90
14378;DHT22;7272;53.668;9.578;2022-09-03T00:20:39;16.70;99.90
14378;DHT22;7272;53.668;9.578;2022-09-03T00:23:43;16.60;99.90
14378;DHT22;7272;53.668;9.578;2022-09-03T00:26:51;16.60;99.90
14378;DHT22;7272;53.668;9.578;2022-09-03T00:29:57;16.60;99.90
14378;DHT22;7272;53.668;9.578;2022-09-03T00:33:02;16.60;99.90
14378;DHT22;7272;53.668;9.578;2022-09-03T00:36:13;16.60;99.90
14378;DHT22;7272;53.668;9.578;2022-09-03T00:39:17;16.50;99.90
14378;DHT22;7272;53.668;9.578;2022-09-03T00:42:30;16.60;99.90
14378;DHT22;7272;53.668;9.578;2022-09-03T00:45:40;16.70;99.90
14378;DHT22;7272;53.668;9.578;2022-09-03T00:48:55;16.60;99.90
14378;DHT22;7272;53.668;9.578;2022-09-03T00:52:11;16.60;99.90
14378;DHT22;7272;53.668;9.578;2022-09-03T00:55:25;16.50;99.90
14378;DHT22;7272;53.668;9.578;2022-09-03T00:58:41;16.40;99.90
14378;DHT22;7272;53.668;9.578;2022-09-03T01:01:49;16.40;99.90
14378;DHT22;7272;53.668;9.578;2022-09-03T01:05:01;16.30;99.90
14378;DHT22;7272;53.668;9.578;2022-09-03T01:08:19;16.30;99.90
14378;DHT22;7272;53.668;9.578;2022-09-03T01:11:36;16.20;99.90
14378;DHT22;7272;53.668;9.578;2022-09-03T01:14:50;16.20;99.90
14378;DHT22;7272;53.668;9.578;2022-09-03T01:18:01;16.10;99.90
14378;DHT22;7272;53.668;9.578;2022-09-03T01:21:29;16.00;99.90
14378;DHT22;7272;53.668;9.578;2022-09-03T01:24:59;16.00;99.90
14378;DHT22;7272;53.668;9.578;2022-09-03T01:28:14;16.10;99.90
14378;DHT22;7272;53.668;9.578;2022-09-03T01:31:26;16.20;99.90
14378;DHT22;7272;53.668;9.578;2022-09-03T01:34:40;16.10;99.90
14378;DHT22;7272;53.668;9.578;2022-09-03T01:37:53;16.00;99.90
14378;DHT22;7272;53.668;9.578;2022-09-03T01:41:06;15.90;99.90
14378;DHT22;7272;53.668;9.578;2022-09-03T01:44:33;15.90;99.90
14378;DHT22;7272;53.668;9.578;2022-09-03T01:47:48;15.80;99.90
14378;DHT22;7272;53.668;9.578;2022-09-03T01:50:55;15.70;99.90
14378;DHT22;7272;53.668;9.578;2022-09-03T01:54:18;15.70;99.90
14378;DHT22;7272;53.668;9.578;2022-09-03T01:57:48;15.70;99.90
14378;DHT22;7272;53.668;9.578;2022-09-03T02:00:56;15.60;99.90
14378;DHT22;7272;53.668;9.578;2022-09-03T02:04:01;15.60;99.90
14378;DHT22;7272;53.668;9.578;2022-09-03T02:07:03;15.60;99.90
14378;DHT22;7272;53.668;9.578;2022-09-03T02:10:08;15.50;99.90
14378;DHT22;7272;53.668;9.578;2022-09-03T02:13:14;15.60;99.90
14378;DHT22;7272;53.668;9.578;2022-09-03T02:16:21;15.60;99.90
14378;DHT22;7272;53.668;9.578;2022-09-03T02:19:26;15.50;99.90
14378;DHT22;7272;53.668;9.578;2022-09-03T02:22:28;15.50;99.90
14378;DHT22;7272;53.668;9.578;2022-09-03T02:25:34;15.40;99.90
14378;DHT22;7272;53.668;9.578;2022-09-03T02:28:37;15.40;99.90
14378;DHT22;7272;53.668;9.578;2022-09-03T02:31:40;15.50;99.90
14378;DHT22;7272;53.668;9.578;2022-09-03T02:34:42;15.60;99.90
14378;DHT22;7272;53.668;9.578;2022-09-03T02:37:44;15.50;99.90
14378;DHT22;7272;53.668;9.578;2022-09-03T02:40:47;15.50;99.90
14378;DHT22;7272;53.668;9.578;2022-09-03T02:43:52;15.40;99.90
14378;DHT22;7272;53.668;9.578;2022-09-03T02:46:59;15.40;99.90
14378;DHT22;7272;53.668;9.578;2022-09-03T02:50:01;15.30;99.90
14378;DHT22;7272;53.668;9.578;2022-09-03T02:53:03;15.30;99.90
14378;DHT22;7272;53.668;9.578;2022-09-03T02:56:05;15.30;99.90
14378;DHT22;7272;53.668;9.578;2022-09-03T02:59:09;15.20;99.90
14378;DHT22;7272;53.668;9.578;2022-09-03T03:02:12;15.20;99.90
14378;DHT22;7272;53.668;9.578;2022-09-03T03:05:20;15.20;99.90
14378;DHT22;7272;53.668;9.578;2022-09-03T03:08:26;15.10;99.90
14378;DHT22;7272;53.668;9.578;2022-09-03T03:11:28;15.10;99.90
14378;DHT22;7272;53.668;9.578;2022-09-03T03:14:30;15.00;99.90
14378;DHT22;7272;53.668;9.578;2022-09-03T03:17:33;15.00;99.90
14378;DHT22;7272;53.668;9.578;2022-09-03T03:20:35;15.00;99.90
14378;DHT22;7272;53.668;9.578;2022-09-03T03:23:38;15.00;99.90
14378;DHT22;7272;53.668;9.578;2022-09-03T03:26:40;15.00;99.90
14378;DHT22;7272;53.668;9.578;2022-09-03T03:29:42;14.90;99.90
14378;DHT22;7272;53.668;9.578;2022-09-03T03:32:45;14.90;99.90
14378;DHT22;7272;53.668;9.578;2022-09-03T03:35:47;14.90;99.90
14378;DHT22;7272;53.668;9.578;2022-09-03T03:38:52;15.00;99.90
14378;DHT22;7272;53.668;9.578;2022-09-03T03:41:55;14.90;99.90
14378;DHT22;7272;53.668;9.578;2022-09-03T03:44:57;14.90;99.90
14378;DHT22;7272;53.668;9.578;2022-09-03T03:48:00;14.80;99.90
14378;DHT22;7272;53.668;9.578;2022-09-03T03:51:04;14.80;99.90
14378;DHT22;7272;53.668;9.578;2022-09-03T03:54:07;14.80;99.90
14378;DHT22;7272;53.668;9.578;2022-09-03T03:57:08;14.70;99.90
14378;DHT22;7272;53.668;9.578;2022-09-03T04:00:12;14.60;99.90
14378;DHT22;7272;53.668;9.578;2022-09-03T04:03:18;14.60;99.90
14378;DHT22;7272;53.668;9.578;2022-09-03T04:06:21;14.80;99.90
14378;DHT22;7272;53.668;9.578;2022-09-03T04:09:22;14.80;99.90
14378;DHT22;7272;53.668;9.578;2022-09-03T04:12:26;14.70;99.90
14378;DHT22;7272;53.668;9.578;2022-09-03T04:15:28;14.60;99.90
14378;DHT22;7272;53.668;9.578;2022-09-03T04:18:32;14.60;99.90
14378;DHT22;7272;53.668;9.578;2022-09-03T04:21:34;14.60;99.90
14378;DHT22;7272;53.668;9.578;2022-09-03T04:24:36;14.60;99.90
14378;DHT22;7272;53.668;9.578;2022-09-03T04:27:38;14.60;99.90
14378;DHT22;7272;53.668;9.578;2022-09-03T04:30:40;14.60;99.90
14378;DHT22;7272;53.668;9.578;2022-09-03T04:33:43;14.60;99.90
14378;DHT22;7272;53.668;9.578;2022-09-03T04:36:45;14.50;99.90
14378;DHT22;7272;53.668;9.578;2022-09-03T04:39:47;14.50;99.90
14378;DHT22;7272;53.668;9.578;2022-09-03T04:42:49;14.50;99.90
14378;DHT22;7272;53.668;9.578;2022-09-03T04:45:55;14.40;99.90
14378;DHT22;7272;53.668;9.578;2022-09-03T04:49:00;14.40;99.90
14378;DHT22;7272;53.668;9.578;2022-09-03T04:52:02;14.60;99.90
14378;DHT22;7272;53.668;9.578;2022-09-03T04:55:06;14.60;99.90
14378;DHT22;7272;53.668;9.578;2022-09-03T04:58:08;14.60;99.90
14378;DHT22;7272;53.668;9.578;2022-09-03T05:01:11;14.60;99.90
14378;DHT22;7272;53.668;9.578;2022-09-03T05:04:15;14.50;99.90
14378;DHT22;7272;53.668;9.578;2022-09-03T05:07:17;14.50;99.90
14378;DHT22;7272;53.668;9.578;2022-09-03T05:10:19;14.50;99.90
14378;DHT22;7272;53.668;9.578;2022-09-03T05:13:21;14.50;99.90
14378;DHT22;7272;53.668;9.578;2022-09-03T05:16:24;14.40;99.90
14378;DHT22;7272;53.668;9.578;2022-09-03T05:19:27;14.60;99.90
14378;DHT22;7272;53.668;9.578;2022-09-03T05:22:29;14.60;99.90
14378;DHT22;7272;53.668;9.578;2022-09-03T05:25:32;14.50;99.90
14378;DHT22;7272;53.668;9.578;2022-09-03T05:28:35;14.50;99.90
14378;DHT22;7272;53.668;9.578;2022-09-03T05:31:38;14.50;99.90
14378;DHT22;7272;53.668;9.578;2022-09-03T05:34:41;14.50;99.90
14378;DHT22;7272;53.668;9.578;2022-09-03T05:37:43;14.60;99.90
14378;DHT22;7272;53.668;9.578;2022-09-03T05:40:45;14.70;99.90
14378;DHT22;7272;53.668;9.578;2022-09-03T05:43:48;14.90;99.90
14378;DHT22;7272;53.668;9.578;2022-09-03T05:46:54;14.90;99.90
14378;DHT22;7272;53.668;9.578;2022-09-03T05:49:58;14.90;99.90
14378;DHT22;7272;53.668;9.578;2022-09-03T05:53:00;15.00;99.90
14378;DHT22;7272;53.668;9.578;2022-09-03T05:56:05;15.00;99.90
14378;DHT22;7272;53.668;9.578;2022-09-03T05:59:09;15.10;99.90
14378;DHT22;7272;53.668;9.578;2022-09-03T06:02:11;15.10;99.90
14378;DHT22;7272;53.668;9.578;2022-09-03T06:05:14;15.30;99.90
14378;DHT22;7272;53.668;9.578;2022-09-03T06:08:18;15.50;99.90
14378;DHT22;7272;53.668;9.578;2022-09-03T06:11:20;15.50;99.90
14378;DHT22;7272;53.668;9.578;2022-09-03T06:14:26;15.50;99.90
14378;DHT22;7272;53.668;9.578;2022-09-03T06:17:28;15.50;99.90
14378;DHT22;7272;53.668;9.578;2022-09-03T06:20:31;15.60;99.90
14378;DHT22;7272;53.668;9.578;2022-09-03T06:23:34;15.70;99.90
14378;DHT22;7272;53.668;9.578;2022-09-03T06:26:37;15.70;99.90
14378;DHT22;7272;53.668;9.578;2022-09-03T06:29:39;15.80;99.90
14378;DHT22;7272;53.668;9.578;2022-09-03T06:32:43;15.90;99.90
14378;DHT22;7272;53.668;9.578;2022-09-03T06:35:46;16.00;99.90
14378;DHT22;7272;53.668;9.578;2022-09-03T06:38:51;16.20;99.90
14378;DHT22;7272;53.668;9.578;2022-09-03T06:41:53;16.20;99.90
14378;DHT22;7272;53.668;9.578;2022-09-03T06:45:01;16.30;99.90
14378;DHT22;7272;53.668;9.578;2022-09-03T06:48:03;16.40;99.90
14378;DHT22;7272;53.668;9.578;2022-09-03T06:51:09;16.50;99.90
14378;DHT22;7272;53.668;9.578;2022-09-03T06:54:11;16.70;99.90
14378;DHT22;7272;53.668;9.578;2022-09-03T06:57:15;17.00;99.90
14378;DHT22;7272;53.668;9.578;2022-09-03T07:00:17;17.00;99.90
14378;DHT22;7272;53.668;9.578;2022-09-03T07:03:20;17.10;99.90
14378;DHT22;7272;53.668;9.578;2022-09-03T07:06:26;17.10;99.90
14378;DHT22;7272;53.668;9.578;2022-09-03T07:09:29;17.20;99.90
14378;DHT22;7272;53.668;9.578;2022-09-03T07:12:35;17.30;99.90
14378;DHT22;7272;53.668;9.578;2022-09-03T07:15:37;17.40;99.90
14378;DHT22;7272;53.668;9.578;2022-09-03T07:18:39;17.50;99.90
14378;DHT22;7272;53.668;9.578;2022-09-03T07:21:44;17.60;99.90
14378;DHT22;7272;53.668;9.578;2022-09-03T07:24:46;17.80;99.90
14378;DHT22;7272;53.668;9.578;2022-09-03T07:27:49;17.90;99.90
14378;DHT22;7272;53.668;9.578;2022-09-03T07:30:52;18.00;99.90
14378;DHT22;7272;53.668;9.578;2022-09-03T07:33:55;18.20;99.90
14378;DHT22;7272;53.668;9.578;2022-09-03T07:36:59;18.30;99.90
14378;DHT22;7272;53.668;9.578;2022-09-03T07:40:02;18.50;99.90
14378;DHT22;7272;53.668;9.578;2022-09-03T07:43:04;18.60;99.90
14378;DHT22;7272;53.668;9.578;2022-09-03T07:46:06;18.90;99.90
14378;DHT22;7272;53.668;9.578;2022-09-03T07:49:08;19.20;99.90
14378;DHT22;7272;53.668;9.578;2022-09-03T07:52:11;19.40;99.90
14378;DHT22;7272;53.668;9.578;2022-09-03T07:55:14;19.60;99.90
14378;DHT22;7272;53.668;9.578;2022-09-03T07:58:16;19.80;99.90
14378;DHT22;7272;53.668;9.578;2022-09-03T08:01:19;20.00;99.90
14378;DHT22;7272;53.668;9.578;2022-09-03T08:04:21;20.20;99.90
14378;DHT22;7272;53.668;9.578;2022-09-03T08:07:25;20.40;99.90
14378;DHT22;7272;53.668;9.578;2022-09-03T08:10:27;20.60;99.90
14378;DHT22;7272;53.668;9.578;2022-09-03T08:13:30;20.60;99.90
14378;DHT22;7272;53.668;9.578;2022-09-03T08:16:35;20.60;99.90
14378;DHT22;7272;53.668;9.578;2022-09-03T08:19:37;20.60;99.90
14378;DHT22;7272;53.668;9.578;2022-09-03T08:22:42;20.60;99.90
14378;DHT22;7272;53.668;9.578;2022-09-03T08:25:44;20.70;99.90
14378;DHT22;7272;53.668;9.578;2022-09-03T08:28:46;20.80;99.90
14378;DHT22;7272;53.668;9.578;2022-09-03T08:31:48;20.70;99.90
14378;DHT22;7272;53.668;9.578;2022-09-03T08:34:50;20.50;99.90
14378;DHT22;7272;53.668;9.578;2022-09-03T08:37:53;20.30;99.90
14378;DHT22;7272;53.668;9.578;2022-09-03T08:41:02;20.60;99.90
14378;DHT22;7272;53.668;9.578;2022-09-03T08:44:19;20.90;99.90
14378;DHT22;7272;53.668;9.578;2022-09-03T08:47:28;21.10;99.90
14378;DHT22;7272;53.668;9.578;2022-09-03T08:50:35;21.10;99.90
14378;DHT22;7272;53.668;9.578;2022-09-03T08:53:44;21.20;99.90
14378;DHT22;7272;53.668;9.578;2022-09-03T08:56:47;21.50;99.90
14378;DHT22;7272;53.668;9.578;2022-09-03T08:59:53;21.80;99.90
14378;DHT22;7272;53.668;9.578;2022-09-03T09:03:06;22.10;99.90
14378;DHT22;7272;53.668;9.578;2022-09-03T09:06:20;22.40;99.90
14378;DHT22;7272;53.668;9.578;2022-09-03T09:09:30;22.80;99.90
14378;DHT22;7272;53.668;9.578;2022-09-03T09:12:40;23.00;99.90
14378;DHT22;7272;53.668;9.578;2022-09-03T09:15:49;23.10;99.90
14378;DHT22;7272;53.668;9.578;2022-09-03T09:19:04;23.30;99.90
14378;DHT22;7272;53.668;9.578;2022-09-03T09:22:16;23.40;99.90
14378;DHT22;7272;53.668;9.578;2022-09-03T09:25:23;23.50;99.90
14378;DHT22;7272;53.668;9.578;2022-09-03T09:28:30;23.60;99.90
14378;DHT22;7272;53.668;9.578;2022-09-03T09:31:34;23.80;99.90
14378;DHT22;7272;53.668;9.578;2022-09-03T09:34:37;23.90;99.90
14378;DHT22;7272;53.668;9.578;2022-09-03T09:37:49;24.00;99.90
14378;DHT22;7272;53.668;9.578;2022-09-03T09:40:52;24.00;99.90
14378;DHT22;7272;53.668;9.578;2022-09-03T09:44:00;24.10;99.90
14378;DHT22;7272;53.668;9.578;2022-09-03T09:47:05;24.30;99.90
14378;DHT22;7272;53.668;9.578;2022-09-03T09:50:18;24.30;99.90
14378;DHT22;7272;53.668;9.578;2022-09-03T09:53:26;24.00;99.90
14378;DHT22;7272;53.668;9.578;2022-09-03T09:56:31;23.90;99.90
14378;DHT22;7272;53.668;9.578;2022-09-03T09:59:34;24.10;99.90
14378;DHT22;7272;53.668;9.578;2022-09-03T10:02:38;24.30;99.90
14378;DHT22;7272;53.668;9.578;2022-09-03T10:06:01;24.60;99.90
14378;DHT22;7272;53.668;9.578;2022-09-03T10:09:27;24.70;99.90
14378;DHT22;7272;53.668;9.578;2022-09-03T10:12:35;24.80;99.90
14378;DHT22;7272;53.668;9.578;2022-09-03T10:15:43;24.90;99.90
14378;DHT22;7272;53.668;9.578;2022-09-03T10:18:54;25.20;99.90
14378;DHT22;7272;53.668;9.578;2022-09-03T10:22:03;25.10;99.90
14378;DHT22;7272;53.668;9.578;2022-09-03T10:25:09;25.10;99.90
14378;DHT22;7272;53.668;9.578;2022-09-03T10:28:12;24.90;99.90
14378;DHT22;7272;53.668;9.578;2022-09-03T10:31:27;25.00;99.90
14378;DHT22;7272;53.668;9.578;2022-09-03T10:34:39;25.40;99.90
14378;DHT22;7272;53.668;9.578;2022-09-03T10:37:45;25.50;99.90
14378;DHT22;7272;53.668;9.578;2022-09-03T10:40:52;25.50;99.90
14378;DHT22;7272;53.668;9.578;2022-09-03T10:44:28;25.60;99.90
14378;DHT22;7272;53.668;9.578;2022-09-03T10:47:49;25.70;99.90
14378;DHT22;7272;53.668;9.578;2022-09-03T10:50:59;25.70;99.90
14378;DHT22;7272;53.668;9.578;2022-09-03T10:54:15;25.90;99.90
14378;DHT22;7272;53.668;9.578;2022-09-03T10:57:33;26.00;99.90
14378;DHT22;7272;53.668;9.578;2022-09-03T11:00:49;26.00;99.90
14378;DHT22;7272;53.668;9.578;2022-09-03T11:04:03;26.10;99.90
14378;DHT22;7272;53.668;9.578;2022-09-03T11:07:11;26.00;99.90
14378;DHT22;7272;53.668;9.578;2022-09-03T11:10:18;25.60;99.90
14378;DHT22;7272;53.668;9.578;2022-09-03T11:13:25;25.40;99.90
14378;DHT22;7272;53.668;9.578;2022-09-03T11:16:31;25.60;99.90
14378;DHT22;7272;53.668;9.578;2022-09-03T11:19:40;25.70;99.90
14378;DHT22;7272;53.668;9.578;2022-09-03T11:22:50;25.80;99.90
14378;DHT22;7272;53.668;9.578;2022-09-03T11:25:55;26.00;99.90
14378;DHT22;7272;53.668;9.578;2022-09-03T11:29:02;26.00;99.90
14378;DHT22;7272;53.668;9.578;2022-09-03T11:32:16;26.20;99.90
14378;DHT22;7272;53.668;9.578;2022-09-03T11:35:26;26.30;99.90
14378;DHT22;7272;53.668;9.578;2022-09-03T11:38:28;26.20;99.90
14378;DHT22;7272;53.668;9.578;2022-09-03T11:41:33;26.20;99.90
14378;DHT22;7272;53.668;9.578;2022-09-03T11:44:37;26.30;99.90
14378;DHT22;7272;53.668;9.578;2022-09-03T11:47:42;26.40;99.90
14378;DHT22;7272;53.668;9.578;2022-09-03T11:50:54;26.50;99.90
14378;DHT22;7272;53.668;9.578;2022-09-03T11:53:58;26.40;99.90
14378;DHT22;7272;53.668;9.578;2022-09-03T11:57:09;26.40;99.90
14378;DHT22;7272;53.668;9.578;2022-09-03T12:00:14;26.20;99.90
14378;DHT22;7272;53.668;9.578;2022-09-03T12:03:23;25.90;99.90
14378;DHT22;7272;53.668;9.578;2022-09-03T12:06:53;25.90;99.90
14378;DHT22;7272;53.668;9.578;2022-09-03T12:13:32;25.80;99.90
14378;DHT22;7272;53.668;9.578;2022-09-03T12:20:27;25.60;99.90
14378;DHT22;7272;53.668;9.578;2022-09-03T12:23:31;25.30;99.90
14378;DHT22;7272;53.668;9.578;2022-09-03T12:26:38;25.50;99.90
14378;DHT22;7272;53.668;9.578;2022-09-03T12:29:51;25.70;99.90
14378;DHT22;7272;53.668;9.578;2022-09-03T12:33:04;25.60;99.90
14378;DHT22;7272;53.668;9.578;2022-09-03T12:36:08;25.60;99.90
14378;DHT22;7272;53.668;9.578;2022-09-03T12:39:12;25.80;99.90
14378;DHT22;7272;53.668;9.578;2022-09-03T12:42:19;26.00;99.90
14378;DHT22;7272;53.668;9.578;2022-09-03T12:45:24;26.10;99.90
14378;DHT22;7272;53.668;9.578;2022-09-03T12:48:27;26.20;99.90
14378;DHT22;7272;53.668;9.578;2022-09-03T12:51:36;26.30;99.90
14378;DHT22;7272;53.668;9.578;2022-09-03T12:54:45;26.60;99.90
14378;DHT22;7272;53.668;9.578;2022-09-03T12:57:51;26.70;99.90
14378;DHT22;7272;53.668;9.578;2022-09-03T13:00:57;26.80;99.90
14378;DHT22;7272;53.668;9.578;2022-09-03T13:04:04;26.80;99.90
14378;DHT22;7272;53.668;9.578;2022-09-03T13:07:12;26.70;99.90
14378;DHT22;7272;53.668;9.578;2022-09-03T13:10:23;26.80;99.90
14378;DHT22;7272;53.668;9.578;2022-09-03T13:13:27;26.80;99.90
14378;DHT22;7272;53.668;9.578;2022-09-03T13:20:19;26.60;99.90
14378;DHT22;7272;53.668;9.578;2022-09-03T13:23:49;26.50;99.90
14378;DHT22;7272;53.668;9.578;2022-09-03T13:27:02;26.30;99.90
14378;DHT22;7272;53.668;9.578;2022-09-03T13:30:09;26.10;99.90
14378;DHT22;7272;53.668;9.578;2022-09-03T13:33:19;26.10;99.90
14378;DHT22;7272;53.668;9.578;2022-09-03T13:36:25;26.20;99.90
14378;DHT22;7272;53.668;9.578;2022-09-03T13:39:41;26.20;99.90
14378;DHT22;7272;53.668;9.578;2022-09-03T13:42:50;26.20;99.90
14378;DHT22;7272;53.668;9.578;2022-09-03T13:45:57;26.40;99.90
14378;DHT22;7272;53.668;9.578;2022-09-03T13:49:07;26.40;99.90
14378;DHT22;7272;53.668;9.578;2022-09-03T13:52:33;26.40;99.90
14378;DHT22;7272;53.668;9.578;2022-09-03T13:55:45;26.20;99.90
14378;DHT22;7272;53.668;9.578;2022-09-03T13:58:52;26.30;99.90
14378;DHT22;7272;53.668;9.578;2022-09-03T14:02:19;26.40;99.90
14378;DHT22;7272;53.668;9.578;2022-09-03T14:05:37;26.30;99.90
14378;DHT22;7272;53.668;9.578;2022-09-03T14:09:00;26.30;99.90
14378;DHT22;7272;53.668;9.578;2022-09-03T14:12:13;26.40;99.90
14378;DHT22;7272;53.668;9.578;2022-09-03T14:15:21;26.40;99.90
14378;DHT22;7272;53.668;9.578;2022-09-03T14:18:38;26.30;99.90
14378;DHT22;7272;53.668;9.578;2022-09-03T14:21:45;26.30;99.90
14378;DHT22;7272;53.668;9.578;2022-09-03T14:24:51;26.10;99.90
14378;DHT22;7272;53.668;9.578;2022-09-03T14:28:12;26.10;99.90
14378;DHT22;7272;53.668;9.578;2022-09-03T14:31:22;26.00;99.90
14378;DHT22;7272;53.668;9.578;2022-09-03T14:34:32;25.80;99.90
14378;DHT22;7272;53.668;9.578;2022-09-03T14:41:05;25.70;99.90
14378;DHT22;7272;53.668;9.578;2022-09-03T14:44:33;25.60;99.90
14378;DHT22;7272;53.668;9.578;2022-09-03T14:47:48;25.60;99.90
14378;DHT22;7272;53.668;9.578;2022-09-03T14:51:08;25.40;99.90
14378;DHT22;7272;53.668;9.578;2022-09-03T14:54:26;25.40;99.90
14378;DHT22;7272;53.668;9.578;2022-09-03T14:57:44;25.30;99.90
14378;DHT22;7272;53.668;9.578;2022-09-03T15:00:57;25.20;99.90
14378;DHT22;7272;53.668;9.578;2022-09-03T15:04:19;25.10;99.90
14378;DHT22;7272;53.668;9.578;2022-09-03T15:07:31;25.00;99.90
14378;DHT22;7272;53.668;9.578;2022-09-03T15:10:38;25.10;99.90
14378;DHT22;7272;53.668;9.578;2022-09-03T15:13:48;25.10;99.90
14378;DHT22;7272;53.668;9.578;2022-09-03T15:16:59;25.00;99.90
14378;DHT22;7272;53.668;9.578;2022-09-03T15:20:15;24.80;99.90
14378;DHT22;7272;53.668;9.578;2022-09-03T15:23:26;24.70;99.90
14378;DHT22;7272;53.668;9.578;2022-09-03T15:26:52;24.50;99.90
14378;DHT22;7272;53.668;9.578;2022-09-03T15:30:04;24.40;99.90
14378;DHT22;7272;53.668;9.578;2022-09-03T15:33:18;24.30;99.90
14378;DHT22;7272;53.668;9.578;2022-09-03T15:36:26;24.30;99.90
14378;DHT22;7272;53.668;9.578;2022-09-03T15:39:39;24.20;99.90
14378;DHT22;7272;53.668;9.578;2022-09-03T15:42:45;24.20;99.90
14378;DHT22;7272;53.668;9.578;2022-09-03T15:45:51;24.40;99.90
14378;DHT22;7272;53.668;9.578;2022-09-03T15:49:02;24.30;99.90
14378;DHT22;7272;53.668;9.578;2022-09-03T15:52:20;24.20;99.90
14378;DHT22;7272;53.668;9.578;2022-09-03T15:55:32;24.10;99.90
14378;DHT22;7272;53.668;9.578;2022-09-03T15:58:40;24.20;99.90
14378;DHT22;7272;53.668;9.578;2022-09-03T16:01:46;24.10;99.90
14378;DHT22;7272;53.668;9.578;2022-09-03T16:05:04;23.90;99.90
14378;DHT22;7272;53.668;9.578;2022-09-03T16:08:16;23.80;99.90
14378;DHT22;7272;53.668;9.578;2022-09-03T16:11:29;23.70;99.90
14378;DHT22;7272;53.668;9.578;2022-09-03T16:14:37;23.60;99.90
14378;DHT22;7272;53.668;9.578;2022-09-03T16:17:50;23.60;99.90
14378;DHT22;7272;53.668;9.578;2022-09-03T16:20:57;23.70;99.90
14378;DHT22;7272;53.668;9.578;2022-09-03T16:24:05;23.70;99.90
14378;DHT22;7272;53.668;9.578;2022-09-03T16:27:15;23.60;99.90
14378;DHT22;7272;53.668;9.578;2022-09-03T16:30:25;23.50;99.90
14378;DHT22;7272;53.668;9.578;2022-09-03T16:33:36;23.50;99.90
14378;DHT22;7272;53.668;9.578;2022-09-03T16:36:49;23.40;99.90
14378;DHT22;7272;53.668;9.578;2022-09-03T16:40:00;23.40;99.90
14378;DHT22;7272;53.668;9.578;2022-09-03T16:43:14;23.20;99.90
14378;DHT22;7272;53.668;9.578;2022-09-03T16:46:24;23.10;99.90
14378;DHT22;7272;53.668;9.578;2022-09-03T16:49:39;23.10;99.90
14378;DHT22;7272;53.668;9.578;2022-09-03T16:52:58;23.10;99.90
14378;DHT22;7272;53.668;9.578;2022-09-03T16:56:13;22.90;99.90
14378;DHT22;7272;53.668;9.578;2022-09-03T16:59:27;22.90;99.90
14378;DHT22;7272;53.668;9.578;2022-09-03T17:06:12;22.70;99.90
14378;DHT22;7272;53.668;9.578;2022-09-03T17:09:32;22.70;99.90
14378;DHT22;7272;53.668;9.578;2022-09-03T17:12:39;22.80;99.90
14378;DHT22;7272;53.668;9.578;2022-09-03T17:15:46;22.70;99.90
14378;DHT22;7272;53.668;9.578;2022-09-03T17:18:54;22.50;99.90
14378;DHT22;7272;53.668;9.578;2022-09-03T17:22:07;22.30;99.90
14378;DHT22;7272;53.668;9.578;2022-09-03T17:25:20;22.20;99.90
14378;DHT22;7272;53.668;9.578;2022-09-03T17:28:31;22.10;99.90
14378;DHT22;7272;53.668;9.578;2022-09-03T17:31:45;22.00;99.90
14378;DHT22;7272;53.668;9.578;2022-09-03T17:34:59;22.20;99.90
14378;DHT22;7272;53.668;9.578;2022-09-03T17:38:17;22.10;99.90
14378;DHT22;7272;53.668;9.578;2022-09-03T17:41:28;21.90;99.90
14378;DHT22;7272;53.668;9.578;2022-09-03T17:44:45;21.80;99.90
14378;DHT22;7272;53.668;9.578;2022-09-03T17:48:05;21.60;99.90
14378;DHT22;7272;53.668;9.578;2022-09-03T17:51:16;21.50;99.90
14378;DHT22;7272;53.668;9.578;2022-09-03T17:54:35;21.40;99.90
14378;DHT22;7272;53.668;9.578;2022-09-03T17:57:44;21.30;99.90
14378;DHT22;7272;53.668;9.578;2022-09-03T18:00:52;21.20;99.90
14378;DHT22;7272;53.668;9.578;2022-09-03T18:03:58;21.10;99.90
14378;DHT22;7272;53.668;9.578;2022-09-03T18:07:09;21.00;99.90
14378;DHT22;7272;53.668;9.578;2022-09-03T18:10:26;20.90;99.90
14378;DHT22;7272;53.668;9.578;2022-09-03T18:13:44;20.80;99.90
14378;DHT22;7272;53.668;9.578;2022-09-03T18:16:52;20.70;99.90
14378;DHT22;7272;53.668;9.578;2022-09-03T18:20:00;20.60;99.90
14378;DHT22;7272;53.668;9.578;2022-09-03T18:23:27;20.60;99.90
14378;DHT22;7272;53.668;9.578;2022-09-03T18:26:55;20.50;99.90
14378;DHT22;7272;53.668;9.578;2022-09-03T18:30:17;20.70;99.90
14378;DHT22;7272;53.668;9.578;2022-09-03T18:33:37;20.60;99.90
14378;DHT22;7272;53.668;9.578;2022-09-03T18:36:58;20.40;99.90
14378;DHT22;7272;53.668;9.578;2022-09-03T18:40:21;20.20;99.90
14378;DHT22;7272;53.668;9.578;2022-09-03T18:43:51;20.20;99.90
14378;DHT22;7272;53.668;9.578;2022-09-03T18:47:26;20.30;99.90
14378;DHT22;7272;53.668;9.578;2022-09-03T18:50:54;20.20;99.90
14378;DHT22;7272;53.668;9.578;2022-09-03T18:54:24;20.00;99.90
14378;DHT22;7272;53.668;9.578;2022-09-03T18:57:53;19.80;99.90
14378;DHT22;7272;53.668;9.578;2022-09-03T19:01:24;19.80;99.90
14378;DHT22;7272;53.668;9.578;2022-09-03T19:04:56;19.60;99.90
14378;DHT22;7272;53.668;9.578;2022-09-03T19:08:24;19.50;99.90
14378;DHT22;7272;53.668;9.578;2022-09-03T19:11:56;19.40;99.90
14378;DHT22;7272;53.668;9.578;2022-09-03T19:15:21;19.20;99.90
14378;DHT22;7272;53.668;9.578;2022-09-03T19:18:57;19.20;99.90
14378;DHT22;7272;53.668;9.578;2022-09-03T19:22:27;19.10;99.90
14378;DHT22;7272;53.668;9.578;2022-09-03T19:25:51;19.00;99.90
14378;DHT22;7272;53.668;9.578;2022-09-03T19:29:22;18.90;99.90
14378;DHT22;7272;53.668;9.578;2022-09-03T19:32:58;18.80;99.90
14378;DHT22;7272;53.668;9.578;2022-09-03T19:36:26;18.70;99.90
14378;DHT22;7272;53.668;9.578;2022-09-03T19:40:26;19.00;99.90
14378;DHT22;7272;53.668;9.578;2022-09-03T19:43:59;19.10;99.90
14378;DHT22;7272;53.668;9.578;2022-09-03T19:47:33;18.90;99.90
14378;DHT22;7272;53.668;9.578;2022-09-03T19:50:59;18.70;99.90
14378;DHT22;7272;53.668;9.578;2022-09-03T19:54:23;18.60;99.90
14378;DHT22;7272;53.668;9.578;2022-09-03T19:57:48;18.70;99.90
14378;DHT22;7272;53.668;9.578;2022-09-03T20:01:12;18.80;99.90
14378;DHT22;7272;53.668;9.578;2022-09-03T20:04:33;18.70;99.90
14378;DHT22;7272;53.668;9.578;2022-09-03T20:07:54;18.50;99.90
14378;DHT22;7272;53.668;9.578;2022-09-03T20:11:18;18.40;99.90
14378;DHT22;7272;53.668;9.578;2022-09-03T20:14:22;18.20;99.90
14378;DHT22;7272;53.668;9.578;2022-09-03T20:17:30;18.20;99.90
14378;DHT22;7272;53.668;9.578;2022-09-03T20:20:39;18.30;99.90
14378;DHT22;7272;53.668;9.578;2022-09-03T20:23:48;18.30;99.90
14378;DHT22;7272;53.668;9.578;2022-09-03T20:27:03;18.20;99.90
14378;DHT22;7272;53.668;9.578;2022-09-03T20:30:12;18.10;99.90
14378;DHT22;7272;53.668;9.578;2022-09-03T20:33:30;18.00;99.90
14378;DHT22;7272;53.668;9.578;2022-09-03T20:36:40;18.10;99.90